sensor_id;sensor_type;location;lat;lon;timestamp;P1;durP1;ratioP1;P2;durP2;ratioP2
24635;SDS011;12772;49.794;10.024;2022-11-24T00:03:38;3.80;;;2.70;;
24635;SDS011;12772;49.794;10.024;2022-11-24T00:07:40;3.38;;;2.40;;
24635;SDS011;12772;49.794;10.024;2022-11-24T00:11:42;3.95;;;2.97;;
24635;SDS011;12772;49.794;10.024;2022-11-24T00:15:44;5.63;;;2.63;;
24635;SDS011;12772;49.794;10.024;2022-11-24T00:19:46;5.32;;;2.90;;
24635;SDS011;12772;49.794;10.024;2022-11-24T00:23:48;4.75;;;2.95;;
24635;SDS011;12772;49.794;10.024;2022-11-24T00:27:51;6.95;;;2.72;;
24635;SDS011;12772;49.794;10.024;2022-11-24T00:31:55;4.30;;;2.15;;
24635;SDS011;12772;49.794;10.024;2022-11-24T00:35:57;5.97;;;2.80;;
24635;SDS011;12772;49.794;10.024;2022-11-24T00:40:00;7.93;;;3.25;;
24635;SDS011;12772;49.794;10.024;2022-11-24T00:44:02;6.88;;;2.67;;
24635;SDS011;12772;49.794;10.024;2022-11-24T00:48:05;6.88;;;2.80;;
24635;SDS011;12772;49.794;10.024;2022-11-24T00:52:07;6.30;;;2.42;;
24635;SDS011;12772;49.794;10.024;2022-11-24T00:56:10;6.38;;;2.22;;
24635;SDS011;12772;49.794;10.024;2022-11-24T01:00:12;3.50;;;2.67;;
24635;SDS011;12772;49.794;10.024;2022-11-24T01:04:15;4.18;;;2.13;;
24635;SDS011;12772;49.794;10.024;2022-11-24T01:08:17;5.85;;;3.05;;
24635;SDS011;12772;49.794;10.024;2022-11-24T01:12:19;5.20;;;2.25;;
24635;SDS011;12772;49.794;10.024;2022-11-24T01:16:28;5.32;;;2.53;;
24635;SDS011;12772;49.794;10.024;2022-11-24T01:20:35;6.20;;;2.88;;
24635;SDS011;12772;49.794;10.024;2022-11-24T01:24:37;5.20;;;2.00;;
24635;SDS011;12772;49.794;10.024;2022-11-24T01:28:40;6.35;;;1.83;;
24635;SDS011;12772;49.794;10.024;2022-11-24T01:32:43;6.10;;;2.63;;
24635;SDS011;12772;49.794;10.024;2022-11-24T01:36:45;4.90;;;2.45;;
24635;SDS011;12772;49.794;10.024;2022-11-24T01:40:47;6.68;;;2.83;;
24635;SDS011;12772;49.794;10.024;2022-11-24T01:44:52;7.30;;;3.33;;
24635;SDS011;12772;49.794;10.024;2022-11-24T01:49:37;8.57;;;3.28;;
24635;SDS011;12772;49.794;10.024;2022-11-24T01:53:44;10.02;;;2.63;;
24635;SDS011;12772;49.794;10.024;2022-11-24T01:58:11;8.75;;;2.33;;
24635;SDS011;12772;49.794;10.024;2022-11-24T02:02:18;6.20;;;2.80;;
24635;SDS011;12772;49.794;10.024;2022-11-24T02:06:22;9.27;;;2.67;;
24635;SDS011;12772;49.794;10.024;2022-11-24T02:10:27;5.35;;;2.67;;
24635;SDS011;12772;49.794;10.024;2022-11-24T02:14:32;4.07;;;2.33;;
24635;SDS011;12772;49.794;10.024;2022-11-24T02:18:36;6.53;;;2.50;;
24635;SDS011;12772;49.794;10.024;2022-11-24T02:22:56;5.43;;;2.63;;
24635;SDS011;12772;49.794;10.024;2022-11-24T02:27:00;7.57;;;2.80;;
24635;SDS011;12772;49.794;10.024;2022-11-24T02:31:02;8.32;;;2.53;;
24635;SDS011;12772;49.794;10.024;2022-11-24T02:35:06;8.27;;;2.65;;
24635;SDS011;12772;49.794;10.024;2022-11-24T02:39:10;7.85;;;2.67;;
24635;SDS011;12772;49.794;10.024;2022-11-24T02:43:15;9.95;;;2.80;;
24635;SDS011;12772;49.794;10.024;2022-11-24T02:47:21;12.13;;;2.88;;
24635;SDS011;12772;49.794;10.024;2022-11-24T02:51:23;4.88;;;2.70;;
24635;SDS011;12772;49.794;10.024;2022-11-24T02:55:25;6.63;;;2.67;;
24635;SDS011;12772;49.794;10.024;2022-11-24T02:59:27;8.30;;;2.65;;
24635;SDS011;12772;49.794;10.024;2022-11-24T03:03:29;6.03;;;2.58;;
24635;SDS011;12772;49.794;10.024;2022-11-24T03:07:31;8.60;;;3.25;;
24635;SDS011;12772;49.794;10.024;2022-11-24T03:11:33;8.52;;;3.00;;
24635;SDS011;12772;49.794;10.024;2022-11-24T03:15:35;9.43;;;2.88;;
24635;SDS011;12772;49.794;10.024;2022-11-24T03:19:37;9.95;;;3.58;;
24635;SDS011;12772;49.794;10.024;2022-11-24T03:23:39;7.03;;;3.55;;
24635;SDS011;12772;49.794;10.024;2022-11-24T03:27:41;10.82;;;2.95;;
24635;SDS011;12772;49.794;10.024;2022-11-24T03:31:43;9.43;;;3.03;;
24635;SDS011;12772;49.794;10.024;2022-11-24T03:35:45;4.68;;;2.60;;
24635;SDS011;12772;49.794;10.024;2022-11-24T03:39:48;6.78;;;3.08;;
24635;SDS011;12772;49.794;10.024;2022-11-24T03:43:50;9.05;;;3.25;;
24635;SDS011;12772;49.794;10.024;2022-11-24T03:47:52;6.13;;;2.92;;
24635;SDS011;12772;49.794;10.024;2022-11-24T03:51:54;9.85;;;2.72;;
24635;SDS011;12772;49.794;10.024;2022-11-24T03:55:56;7.70;;;2.58;;
24635;SDS011;12772;49.794;10.024;2022-11-24T03:59:58;8.70;;;3.00;;
24635;SDS011;12772;49.794;10.024;2022-11-24T04:04:00;6.60;;;2.47;;
24635;SDS011;12772;49.794;10.024;2022-11-24T04:08:03;6.13;;;2.28;;
24635;SDS011;12772;49.794;10.024;2022-11-24T04:12:06;8.65;;;2.80;;
24635;SDS011;12772;49.794;10.024;2022-11-24T04:16:25;6.20;;;2.35;;
24635;SDS011;12772;49.794;10.024;2022-11-24T04:20:27;10.95;;;3.63;;
24635;SDS011;12772;49.794;10.024;2022-11-24T04:24:29;8.38;;;2.72;;
24635;SDS011;12772;49.794;10.024;2022-11-24T04:28:31;7.47;;;2.63;;
24635;SDS011;12772;49.794;10.024;2022-11-24T04:32:34;9.20;;;3.15;;
24635;SDS011;12772;49.794;10.024;2022-11-24T04:36:36;7.68;;;2.92;;
24635;SDS011;12772;49.794;10.024;2022-11-24T04:40:40;10.18;;;3.30;;
24635;SDS011;12772;49.794;10.024;2022-11-24T04:44:42;7.70;;;2.92;;
24635;SDS011;12772;49.794;10.024;2022-11-24T04:48:44;9.52;;;3.15;;
24635;SDS011;12772;49.794;10.024;2022-11-24T04:52:46;13.20;;;3.70;;
24635;SDS011;12772;49.794;10.024;2022-11-24T04:56:51;7.50;;;3.50;;
24635;SDS011;12772;49.794;10.024;2022-11-24T05:00:53;7.95;;;3.03;;
24635;SDS011;12772;49.794;10.024;2022-11-24T05:04:55;13.70;;;4.30;;
24635;SDS011;12772;49.794;10.024;2022-11-24T05:08:57;13.45;;;3.90;;
24635;SDS011;12772;49.794;10.024;2022-11-24T05:12:59;7.28;;;3.30;;
24635;SDS011;12772;49.794;10.024;2022-11-24T05:17:03;11.68;;;3.05;;
24635;SDS011;12772;49.794;10.024;2022-11-24T05:21:05;10.30;;;3.53;;
24635;SDS011;12772;49.794;10.024;2022-11-24T05:25:07;12.20;;;3.63;;
24635;SDS011;12772;49.794;10.024;2022-11-24T05:29:09;9.73;;;3.08;;
24635;SDS011;12772;49.794;10.024;2022-11-24T05:33:14;10.23;;;3.78;;
24635;SDS011;12772;49.794;10.024;2022-11-24T05:37:18;9.48;;;3.42;;
24635;SDS011;12772;49.794;10.024;2022-11-24T05:41:20;10.70;;;3.45;;
24635;SDS011;12772;49.794;10.024;2022-11-24T05:45:22;9.27;;;2.85;;
24635;SDS011;12772;49.794;10.024;2022-11-24T05:49:24;10.98;;;3.40;;
24635;SDS011;12772;49.794;10.024;2022-11-24T05:53:26;11.65;;;2.92;;
24635;SDS011;12772;49.794;10.024;2022-11-24T05:57:28;11.23;;;3.70;;
24635;SDS011;12772;49.794;10.024;2022-11-24T06:01:30;14.50;;;3.50;;
24635;SDS011;12772;49.794;10.024;2022-11-24T06:05:32;11.68;;;3.42;;
24635;SDS011;12772;49.794;10.024;2022-11-24T06:09:35;11.15;;;4.03;;
24635;SDS011;12772;49.794;10.024;2022-11-24T06:13:40;10.82;;;3.40;;
24635;SDS011;12772;49.794;10.024;2022-11-24T06:17:42;17.52;;;3.55;;
24635;SDS011;12772;49.794;10.024;2022-11-24T06:21:44;8.95;;;3.72;;
24635;SDS011;12772;49.794;10.024;2022-11-24T06:25:46;11.90;;;3.10;;
24635;SDS011;12772;49.794;10.024;2022-11-24T06:29:48;12.93;;;4.35;;
24635;SDS011;12772;49.794;10.024;2022-11-24T06:33:51;10.65;;;3.20;;
24635;SDS011;12772;49.794;10.024;2022-11-24T06:37:53;8.43;;;4.68;;
24635;SDS011;12772;49.794;10.024;2022-11-24T06:41:55;14.32;;;4.65;;
24635;SDS011;12772;49.794;10.024;2022-11-24T06:45:57;12.05;;;3.58;;
24635;SDS011;12772;49.794;10.024;2022-11-24T06:49:59;10.18;;;3.42;;
24635;SDS011;12772;49.794;10.024;2022-11-24T06:54:04;12.23;;;3.72;;
24635;SDS011;12772;49.794;10.024;2022-11-24T06:58:07;11.07;;;3.67;;
24635;SDS011;12772;49.794;10.024;2022-11-24T07:02:09;10.38;;;3.47;;
24635;SDS011;12772;49.794;10.024;2022-11-24T07:06:11;15.75;;;6.32;;
24635;SDS011;12772;49.794;10.024;2022-11-24T07:10:13;13.25;;;5.78;;
24635;SDS011;12772;49.794;10.024;2022-11-24T07:14:15;13.15;;;4.65;;
24635;SDS011;12772;49.794;10.024;2022-11-24T07:18:18;12.95;;;4.40;;
24635;SDS011;12772;49.794;10.024;2022-11-24T07:22:20;10.48;;;3.72;;
24635;SDS011;12772;49.794;10.024;2022-11-24T07:26:22;17.15;;;4.75;;
24635;SDS011;12772;49.794;10.024;2022-11-24T07:30:26;15.05;;;4.85;;
24635;SDS011;12772;49.794;10.024;2022-11-24T07:34:28;15.75;;;4.47;;
24635;SDS011;12772;49.794;10.024;2022-11-24T07:38:31;15.88;;;4.65;;
24635;SDS011;12772;49.794;10.024;2022-11-24T07:42:33;15.23;;;5.38;;
24635;SDS011;12772;49.794;10.024;2022-11-24T07:46:35;10.70;;;5.97;;
24635;SDS011;12772;49.794;10.024;2022-11-24T07:50:37;13.52;;;5.65;;
24635;SDS011;12772;49.794;10.024;2022-11-24T07:54:39;18.00;;;6.25;;
24635;SDS011;12772;49.794;10.024;2022-11-24T07:58:41;15.50;;;4.78;;
24635;SDS011;12772;49.794;10.024;2022-11-24T08:02:43;12.90;;;4.15;;
24635;SDS011;12772;49.794;10.024;2022-11-24T08:06:45;17.15;;;5.18;;
24635;SDS011;12772;49.794;10.024;2022-11-24T08:10:47;13.82;;;5.38;;
24635;SDS011;12772;49.794;10.024;2022-11-24T08:14:49;16.08;;;5.35;;
24635;SDS011;12772;49.794;10.024;2022-11-24T08:18:53;16.77;;;6.38;;
24635;SDS011;12772;49.794;10.024;2022-11-24T08:22:56;14.82;;;5.85;;
24635;SDS011;12772;49.794;10.024;2022-11-24T08:26:59;16.73;;;6.60;;
24635;SDS011;12772;49.794;10.024;2022-11-24T08:31:05;15.48;;;4.57;;
24635;SDS011;12772;49.794;10.024;2022-11-24T08:35:09;13.60;;;4.15;;
24635;SDS011;12772;49.794;10.024;2022-11-24T08:39:12;14.48;;;4.45;;
24635;SDS011;12772;49.794;10.024;2022-11-24T08:43:14;13.75;;;3.95;;
24635;SDS011;12772;49.794;10.024;2022-11-24T08:47:16;13.98;;;4.05;;
24635;SDS011;12772;49.794;10.024;2022-11-24T08:51:19;9.88;;;3.50;;
24635;SDS011;12772;49.794;10.024;2022-11-24T08:55:22;9.45;;;4.22;;
24635;SDS011;12772;49.794;10.024;2022-11-24T08:59:24;12.13;;;4.10;;
24635;SDS011;12772;49.794;10.024;2022-11-24T09:03:26;10.93;;;3.60;;
24635;SDS011;12772;49.794;10.024;2022-11-24T09:07:28;10.77;;;3.78;;
24635;SDS011;12772;49.794;10.024;2022-11-24T09:11:32;9.27;;;3.13;;
24635;SDS011;12772;49.794;10.024;2022-11-24T09:15:34;9.75;;;3.63;;
24635;SDS011;12772;49.794;10.024;2022-11-24T09:19:36;7.32;;;3.20;;
24635;SDS011;12772;49.794;10.024;2022-11-24T09:23:39;8.43;;;3.00;;
24635;SDS011;12772;49.794;10.024;2022-11-24T09:27:41;6.63;;;2.40;;
24635;SDS011;12772;49.794;10.024;2022-11-24T09:31:43;6.47;;;2.17;;
24635;SDS011;12772;49.794;10.024;2022-11-24T09:35:48;4.60;;;2.08;;
24635;SDS011;12772;49.794;10.024;2022-11-24T09:39:50;6.00;;;2.15;;
24635;SDS011;12772;49.794;10.024;2022-11-24T09:48:46;8.60;;;5.53;;
24635;SDS011;12772;49.794;10.024;2022-11-24T09:57:01;6.90;;;2.92;;
24635;SDS011;12772;49.794;10.024;2022-11-24T10:01:16;7.45;;;2.70;;
24635;SDS011;12772;49.794;10.024;2022-11-24T10:05:25;4.50;;;2.35;;
24635;SDS011;12772;49.794;10.024;2022-11-24T10:09:47;6.07;;;2.10;;
24635;SDS011;12772;49.794;10.024;2022-11-24T10:27:31;6.63;;;2.58;;
24635;SDS011;12772;49.794;10.024;2022-11-24T10:31:39;7.35;;;2.92;;
24635;SDS011;12772;49.794;10.024;2022-11-24T10:35:46;4.82;;;1.83;;
24635;SDS011;12772;49.794;10.024;2022-11-24T10:40:02;4.20;;;2.05;;
24635;SDS011;12772;49.794;10.024;2022-11-24T10:44:14;6.50;;;2.38;;
24635;SDS011;12772;49.794;10.024;2022-11-24T10:48:23;2.83;;;2.00;;
24635;SDS011;12772;49.794;10.024;2022-11-24T10:52:28;6.25;;;2.17;;
24635;SDS011;12772;49.794;10.024;2022-11-24T10:56:39;6.28;;;2.05;;
24635;SDS011;12772;49.794;10.024;2022-11-24T11:00:41;5.60;;;1.80;;
24635;SDS011;12772;49.794;10.024;2022-11-24T11:04:43;4.97;;;1.83;;
24635;SDS011;12772;49.794;10.024;2022-11-24T11:08:45;5.38;;;2.50;;
24635;SDS011;12772;49.794;10.024;2022-11-24T11:12:47;3.47;;;1.83;;
24635;SDS011;12772;49.794;10.024;2022-11-24T11:16:51;7.70;;;2.50;;
24635;SDS011;12772;49.794;10.024;2022-11-24T11:20:57;7.40;;;2.22;;
24635;SDS011;12772;49.794;10.024;2022-11-24T11:33:22;5.60;;;2.10;;
24635;SDS011;12772;49.794;10.024;2022-11-24T11:37:30;7.05;;;2.60;;
24635;SDS011;12772;49.794;10.024;2022-11-24T11:41:35;5.97;;;2.40;;
24635;SDS011;12772;49.794;10.024;2022-11-24T11:45:42;5.35;;;2.10;;
24635;SDS011;12772;49.794;10.024;2022-11-24T11:49:46;3.75;;;1.98;;
24635;SDS011;12772;49.794;10.024;2022-11-24T11:54:05;6.72;;;1.90;;
24635;SDS011;12772;49.794;10.024;2022-11-24T12:06:41;6.75;;;2.30;;
24635;SDS011;12772;49.794;10.024;2022-11-24T12:15:33;5.32;;;2.17;;
24635;SDS011;12772;49.794;10.024;2022-11-24T12:19:50;7.63;;;2.60;;
24635;SDS011;12772;49.794;10.024;2022-11-24T12:24:20;7.28;;;2.30;;
24635;SDS011;12772;49.794;10.024;2022-11-24T12:33:15;4.28;;;1.85;;
24635;SDS011;12772;49.794;10.024;2022-11-24T12:41:52;5.88;;;2.15;;
24635;SDS011;12772;49.794;10.024;2022-11-24T12:50:23;8.82;;;2.60;;
24635;SDS011;12772;49.794;10.024;2022-11-24T12:54:33;6.10;;;2.30;;
24635;SDS011;12772;49.794;10.024;2022-11-24T13:07:21;6.00;;;2.22;;
24635;SDS011;12772;49.794;10.024;2022-11-24T13:11:40;4.55;;;2.25;;
24635;SDS011;12772;49.794;10.024;2022-11-24T13:20:14;6.20;;;2.75;;
24635;SDS011;12772;49.794;10.024;2022-11-24T13:24:31;4.22;;;2.20;;
24635;SDS011;12772;49.794;10.024;2022-11-24T13:28:57;7.80;;;2.63;;
24635;SDS011;12772;49.794;10.024;2022-11-24T13:37:19;5.22;;;2.08;;
24635;SDS011;12772;49.794;10.024;2022-11-24T13:49:41;6.53;;;2.28;;
24635;SDS011;12772;49.794;10.024;2022-11-24T13:53:46;7.55;;;2.30;;
24635;SDS011;12772;49.794;10.024;2022-11-24T13:57:57;6.63;;;2.55;;
24635;SDS011;12772;49.794;10.024;2022-11-24T14:02:02;4.25;;;2.05;;
24635;SDS011;12772;49.794;10.024;2022-11-24T14:06:41;4.45;;;2.55;;
24635;SDS011;12772;49.794;10.024;2022-11-24T14:10:53;3.78;;;1.95;;
24635;SDS011;12772;49.794;10.024;2022-11-24T14:15:13;5.88;;;1.98;;
24635;SDS011;12772;49.794;10.024;2022-11-24T14:19:21;6.40;;;2.22;;
24635;SDS011;12772;49.794;10.024;2022-11-24T14:23:26;6.25;;;2.22;;
24635;SDS011;12772;49.794;10.024;2022-11-24T14:27:37;7.43;;;2.47;;
24635;SDS011;12772;49.794;10.024;2022-11-24T14:31:39;5.00;;;2.25;;
24635;SDS011;12772;49.794;10.024;2022-11-24T14:35:43;5.38;;;2.60;;
24635;SDS011;12772;49.794;10.024;2022-11-24T14:39:47;7.22;;;2.40;;
24635;SDS011;12772;49.794;10.024;2022-11-24T14:43:49;5.47;;;2.10;;
24635;SDS011;12772;49.794;10.024;2022-11-24T14:48:03;5.22;;;2.40;;
24635;SDS011;12772;49.794;10.024;2022-11-24T14:52:11;6.65;;;3.42;;
24635;SDS011;12772;49.794;10.024;2022-11-24T15:00:32;9.48;;;3.33;;
24635;SDS011;12772;49.794;10.024;2022-11-24T15:04:34;8.15;;;4.78;;
24635;SDS011;12772;49.794;10.024;2022-11-24T15:08:56;8.75;;;3.38;;
24635;SDS011;12772;49.794;10.024;2022-11-24T15:12:59;7.97;;;3.20;;
24635;SDS011;12772;49.794;10.024;2022-11-24T15:17:03;8.48;;;3.28;;
24635;SDS011;12772;49.794;10.024;2022-11-24T15:21:05;8.95;;;4.43;;
24635;SDS011;12772;49.794;10.024;2022-11-24T15:29:32;15.02;;;6.65;;
24635;SDS011;12772;49.794;10.024;2022-11-24T15:33:35;14.60;;;9.50;;
24635;SDS011;12772;49.794;10.024;2022-11-24T15:37:37;10.02;;;4.75;;
24635;SDS011;12772;49.794;10.024;2022-11-24T15:41:39;9.50;;;4.45;;
24635;SDS011;12772;49.794;10.024;2022-11-24T15:45:41;7.30;;;3.22;;
24635;SDS011;12772;49.794;10.024;2022-11-24T15:49:43;5.15;;;3.03;;
24635;SDS011;12772;49.794;10.024;2022-11-24T15:53:46;7.85;;;3.75;;
24635;SDS011;12772;49.794;10.024;2022-11-24T15:57:50;7.50;;;2.95;;
24635;SDS011;12772;49.794;10.024;2022-11-24T16:01:52;6.22;;;3.03;;
24635;SDS011;12772;49.794;10.024;2022-11-24T16:05:54;4.25;;;2.40;;
24635;SDS011;12772;49.794;10.024;2022-11-24T16:09:57;6.10;;;2.42;;
24635;SDS011;12772;49.794;10.024;2022-11-24T16:13:59;7.78;;;2.90;;
24635;SDS011;12772;49.794;10.024;2022-11-24T16:18:04;10.55;;;2.72;;
24635;SDS011;12772;49.794;10.024;2022-11-24T16:22:06;6.90;;;2.60;;
24635;SDS011;12772;49.794;10.024;2022-11-24T16:26:08;4.20;;;2.35;;
24635;SDS011;12772;49.794;10.024;2022-11-24T16:30:11;6.20;;;2.78;;
24635;SDS011;12772;49.794;10.024;2022-11-24T16:34:13;6.57;;;3.00;;
24635;SDS011;12772;49.794;10.024;2022-11-24T16:38:16;6.80;;;2.58;;
24635;SDS011;12772;49.794;10.024;2022-11-24T16:42:21;8.00;;;3.15;;
24635;SDS011;12772;49.794;10.024;2022-11-24T16:46:23;7.18;;;2.95;;
24635;SDS011;12772;49.794;10.024;2022-11-24T16:50:26;8.85;;;3.20;;
24635;SDS011;12772;49.794;10.024;2022-11-24T16:54:28;7.07;;;2.90;;
24635;SDS011;12772;49.794;10.024;2022-11-24T16:58:32;5.60;;;3.15;;
24635;SDS011;12772;49.794;10.024;2022-11-24T17:02:34;7.95;;;2.97;;
24635;SDS011;12772;49.794;10.024;2022-11-24T17:06:37;6.97;;;3.20;;
24635;SDS011;12772;49.794;10.024;2022-11-24T17:10:39;5.72;;;3.28;;
24635;SDS011;12772;49.794;10.024;2022-11-24T17:14:41;8.88;;;3.72;;
24635;SDS011;12772;49.794;10.024;2022-11-24T17:18:44;10.93;;;3.90;;
24635;SDS011;12772;49.794;10.024;2022-11-24T17:22:46;5.80;;;3.33;;
24635;SDS011;12772;49.794;10.024;2022-11-24T17:26:48;8.00;;;3.78;;
24635;SDS011;12772;49.794;10.024;2022-11-24T17:30:51;7.63;;;3.30;;
24635;SDS011;12772;49.794;10.024;2022-11-24T17:34:53;5.15;;;3.13;;
24635;SDS011;12772;49.794;10.024;2022-11-24T17:38:55;8.75;;;3.53;;
24635;SDS011;12772;49.794;10.024;2022-11-24T17:43:00;6.43;;;3.70;;
24635;SDS011;12772;49.794;10.024;2022-11-24T17:47:02;8.15;;;3.70;;
24635;SDS011;12772;49.794;10.024;2022-11-24T17:51:05;6.97;;;4.57;;
24635;SDS011;12772;49.794;10.024;2022-11-24T17:55:09;9.60;;;5.18;;
24635;SDS011;12772;49.794;10.024;2022-11-24T17:59:11;5.85;;;5.30;;
24635;SDS011;12772;49.794;10.024;2022-11-24T18:03:13;8.57;;;5.53;;
24635;SDS011;12772;49.794;10.024;2022-11-24T18:07:15;7.03;;;5.05;;
24635;SDS011;12772;49.794;10.024;2022-11-24T18:11:19;6.05;;;5.45;;
24635;SDS011;12772;49.794;10.024;2022-11-24T18:15:24;12.50;;;6.00;;
24635;SDS011;12772;49.794;10.024;2022-11-24T18:19:26;8.23;;;5.97;;
24635;SDS011;12772;49.794;10.024;2022-11-24T18:23:29;7.53;;;5.40;;
24635;SDS011;12772;49.794;10.024;2022-11-24T18:27:32;8.57;;;4.40;;
24635;SDS011;12772;49.794;10.024;2022-11-24T18:31:34;8.02;;;4.43;;
24635;SDS011;12772;49.794;10.024;2022-11-24T18:35:37;5.70;;;3.88;;
24635;SDS011;12772;49.794;10.024;2022-11-24T18:39:39;5.85;;;3.83;;
24635;SDS011;12772;49.794;10.024;2022-11-24T18:43:42;10.48;;;4.50;;
24635;SDS011;12772;49.794;10.024;2022-11-24T18:47:44;9.50;;;4.45;;
24635;SDS011;12772;49.794;10.024;2022-11-24T18:51:46;12.32;;;6.30;;
24635;SDS011;12772;49.794;10.024;2022-11-24T18:59:56;12.80;;;4.88;;
24635;SDS011;12772;49.794;10.024;2022-11-24T19:03:59;9.10;;;5.35;;
24635;SDS011;12772;49.794;10.024;2022-11-24T19:08:02;8.65;;;4.50;;
24635;SDS011;12772;49.794;10.024;2022-11-24T19:12:04;7.70;;;3.85;;
24635;SDS011;12772;49.794;10.024;2022-11-24T19:16:09;11.27;;;4.53;;
24635;SDS011;12772;49.794;10.024;2022-11-24T19:20:12;9.45;;;4.57;;
24635;SDS011;12772;49.794;10.024;2022-11-24T19:24:14;5.88;;;3.72;;
24635;SDS011;12772;49.794;10.024;2022-11-24T19:28:16;9.65;;;4.20;;
24635;SDS011;12772;49.794;10.024;2022-11-24T19:32:18;8.45;;;3.90;;
24635;SDS011;12772;49.794;10.024;2022-11-24T19:36:20;6.55;;;3.33;;
24635;SDS011;12772;49.794;10.024;2022-11-24T19:40:22;7.22;;;3.17;;
24635;SDS011;12772;49.794;10.024;2022-11-24T19:44:24;7.43;;;3.72;;
24635;SDS011;12772;49.794;10.024;2022-11-24T19:48:30;6.30;;;3.72;;
24635;SDS011;12772;49.794;10.024;2022-11-24T19:52:36;4.45;;;3.85;;
24635;SDS011;12772;49.794;10.024;2022-11-24T19:56:38;6.65;;;5.15;;
24635;SDS011;12772;49.794;10.024;2022-11-24T20:00:40;10.00;;;6.03;;
24635;SDS011;12772;49.794;10.024;2022-11-24T20:04:42;8.02;;;5.60;;
24635;SDS011;12772;49.794;10.024;2022-11-24T20:08:44;8.75;;;5.53;;
24635;SDS011;12772;49.794;10.024;2022-11-24T20:12:46;10.43;;;5.63;;
24635;SDS011;12772;49.794;10.024;2022-11-24T20:16:48;8.18;;;5.30;;
24635;SDS011;12772;49.794;10.024;2022-11-24T20:20:51;12.45;;;6.95;;
24635;SDS011;12772;49.794;10.024;2022-11-24T20:24:53;10.30;;;5.50;;
24635;SDS011;12772;49.794;10.024;2022-11-24T20:28:55;10.43;;;6.00;;
24635;SDS011;12772;49.794;10.024;2022-11-24T20:32:58;7.80;;;4.93;;
24635;SDS011;12772;49.794;10.024;2022-11-24T20:37:01;7.88;;;4.80;;
24635;SDS011;12772;49.794;10.024;2022-11-24T20:41:04;7.03;;;4.15;;
24635;SDS011;12772;49.794;10.024;2022-11-24T20:45:08;8.38;;;4.68;;
24635;SDS011;12772;49.794;10.024;2022-11-24T20:49:15;11.55;;;4.93;;
24635;SDS011;12772;49.794;10.024;2022-11-24T20:53:18;8.85;;;4.72;;
24635;SDS011;12772;49.794;10.024;2022-11-24T20:57:20;13.77;;;5.45;;
24635;SDS011;12772;49.794;10.024;2022-11-24T21:01:23;8.63;;;5.78;;
24635;SDS011;12772;49.794;10.024;2022-11-24T21:05:27;8.50;;;4.70;;
24635;SDS011;12772;49.794;10.024;2022-11-24T21:09:29;7.95;;;4.70;;
24635;SDS011;12772;49.794;10.024;2022-11-24T21:13:32;8.05;;;4.88;;
24635;SDS011;12772;49.794;10.024;2022-11-24T21:17:35;11.98;;;6.30;;
24635;SDS011;12772;49.794;10.024;2022-11-24T21:21:37;8.55;;;4.80;;
24635;SDS011;12772;49.794;10.024;2022-11-24T21:25:41;9.52;;;5.53;;
24635;SDS011;12772;49.794;10.024;2022-11-24T21:29:44;7.57;;;5.30;;
24635;SDS011;12772;49.794;10.024;2022-11-24T21:33:46;8.15;;;4.70;;
24635;SDS011;12772;49.794;10.024;2022-11-24T21:37:50;11.52;;;5.32;;
24635;SDS011;12772;49.794;10.024;2022-11-24T21:41:52;8.70;;;4.32;;
24635;SDS011;12772;49.794;10.024;2022-11-24T21:45:58;9.35;;;4.70;;
24635;SDS011;12772;49.794;10.024;2022-11-24T21:50:02;8.68;;;4.50;;
24635;SDS011;12772;49.794;10.024;2022-11-24T21:54:06;7.28;;;4.03;;
24635;SDS011;12772;49.794;10.024;2022-11-24T21:58:08;5.55;;;3.53;;
24635;SDS011;12772;49.794;10.024;2022-11-24T22:02:10;9.10;;;4.68;;
24635;SDS011;12772;49.794;10.024;2022-11-24T22:06:12;10.00;;;4.95;;
24635;SDS011;12772;49.794;10.024;2022-11-24T22:10:16;9.80;;;5.97;;
24635;SDS011;12772;49.794;10.024;2022-11-24T22:14:18;8.20;;;5.00;;
24635;SDS011;12772;49.794;10.024;2022-11-24T22:18:20;11.90;;;5.50;;
24635;SDS011;12772;49.794;10.024;2022-11-24T22:22:22;9.20;;;4.82;;
24635;SDS011;12772;49.794;10.024;2022-11-24T22:26:24;8.10;;;4.63;;
24635;SDS011;12772;49.794;10.024;2022-11-24T22:30:27;13.38;;;4.70;;
24635;SDS011;12772;49.794;10.024;2022-11-24T22:34:29;10.07;;;4.30;;
24635;SDS011;12772;49.794;10.024;2022-11-24T22:38:31;6.40;;;4.00;;
24635;SDS011;12772;49.794;10.024;2022-11-24T22:42:34;10.65;;;4.53;;
24635;SDS011;12772;49.794;10.024;2022-11-24T22:46:36;10.40;;;5.45;;
24635;SDS011;12772;49.794;10.024;2022-11-24T22:50:38;8.70;;;4.90;;
24635;SDS011;12772;49.794;10.024;2022-11-24T22:54:40;10.18;;;4.80;;
24635;SDS011;12772;49.794;10.024;2022-11-24T22:58:42;7.35;;;4.95;;
24635;SDS011;12772;49.794;10.024;2022-11-24T23:02:45;10.82;;;4.13;;
24635;SDS011;12772;49.794;10.024;2022-11-24T23:06:47;7.70;;;4.40;;
24635;SDS011;12772;49.794;10.024;2022-11-24T23:10:48;7.50;;;4.03;;
24635;SDS011;12772;49.794;10.024;2022-11-24T23:14:50;10.60;;;4.15;;
24635;SDS011;12772;49.794;10.024;2022-11-24T23:18:53;6.53;;;4.15;;
24635;SDS011;12772;49.794;10.024;2022-11-24T23:22:55;10.32;;;5.88;;
24635;SDS011;12772;49.794;10.024;2022-11-24T23:26:57;10.10;;;5.63;;
24635;SDS011;12772;49.794;10.024;2022-11-24T23:31:03;7.70;;;5.00;;
24635;SDS011;12772;49.794;10.024;2022-11-24T23:35:09;9.25;;;4.57;;
24635;SDS011;12772;49.794;10.024;2022-11-24T23:39:11;9.93;;;4.30;;
24635;SDS011;12772;49.794;10.024;2022-11-24T23:43:13;8.82;;;4.43;;
24635;SDS011;12772;49.794;10.024;2022-11-24T23:47:15;9.52;;;5.57;;
24635;SDS011;12772;49.794;10.024;2022-11-24T23:51:18;12.93;;;6.40;;
24635;SDS011;12772;49.794;10.024;2022-11-24T23:55:21;12.13;;;6.45;;
24635;SDS011;12772;49.794;10.024;2022-11-24T23:59:23;10.88;;;6.25;;
